createdAt,value
2018-09-28T00:01:15.570Z,12.68
2018-09-28T00:03:43.901Z,13.55
2018-09-28T00:06:12.207Z,13.53
2018-09-28T00:08:40.539Z,12.30
2018-09-28T00:11:08.891Z,13.55
2018-09-28T00:13:37.225Z,14.20
2018-09-28T00:16:05.535Z,14.18
2018-09-28T00:18:33.932Z,13.20
2018-09-28T00:21:02.912Z,11.97
2018-09-28T00:23:31.354Z,13.18
2018-09-28T00:25:59.789Z,14.15
2018-09-28T00:28:28.157Z,13.65
2018-09-28T00:30:56.466Z,12.45
2018-09-28T00:33:24.816Z,13.15
2018-09-28T00:35:53.309Z,12.82
2018-09-28T00:38:21.649Z,12.90
2018-09-28T00:40:50.002Z,13.78
2018-09-28T00:43:19.095Z,13.03
2018-09-28T00:45:47.456Z,13.03
2018-09-28T00:48:16.150Z,13.40
2018-09-28T00:50:44.464Z,12.90
2018-09-28T00:53:12.940Z,14.38
2018-09-28T00:55:41.269Z,13.22
2018-09-28T00:58:09.714Z,14.47
2018-09-28T01:00:38.222Z,13.28
2018-09-28T01:03:06.588Z,14.78
2018-09-28T01:05:35.191Z,14.70
2018-09-28T01:08:03.653Z,15.35
2018-09-28T01:10:32.019Z,14.90
2018-09-28T01:13:00.355Z,16.97
2018-09-28T01:15:28.739Z,14.03
2018-09-28T01:17:57.088Z,14.65
2018-09-28T01:20:25.420Z,14.90
2018-09-28T01:22:53.776Z,15.45
2018-09-28T01:25:22.140Z,14.80
2018-09-28T01:27:50.527Z,13.70
2018-09-28T01:30:18.934Z,16.05
2018-09-28T01:32:47.292Z,16.82
2018-09-28T01:35:15.656Z,17.73
2018-09-28T01:37:44.117Z,16.82
2018-09-28T01:40:12.670Z,14.80
2018-09-28T01:42:42.187Z,17.27
2018-09-28T01:45:10.714Z,17.57
2018-09-28T01:47:39.242Z,17.32
2018-09-28T01:50:07.598Z,17.05
2018-09-28T01:52:35.998Z,16.65
2018-09-28T01:55:05.315Z,16.50
2018-09-28T01:57:33.675Z,16.27
2018-09-28T02:00:02.049Z,15.98
2018-09-28T02:02:30.350Z,15.30
2018-09-28T02:04:58.713Z,17.15
2018-09-28T02:07:27.268Z,18.48
2018-09-28T02:09:55.627Z,18.15
2018-09-28T02:12:24.048Z,18.10
2018-09-28T02:14:52.366Z,17.60
2018-09-28T02:17:20.721Z,18.73
2018-09-28T02:19:49.221Z,17.57
2018-09-28T02:22:17.727Z,16.15
2018-09-28T02:24:46.287Z,16.30
2018-09-28T02:27:14.669Z,16.95
2018-09-28T02:29:43.007Z,14.75
2018-09-28T02:32:11.324Z,17.42
2018-09-28T02:34:39.673Z,19.45
2018-09-28T02:37:08.123Z,18.95
2018-09-28T02:39:36.473Z,16.97
2018-09-28T02:42:05.049Z,18.17
2018-09-28T02:44:34.058Z,19.10
2018-09-28T02:47:02.376Z,18.60
2018-09-28T02:49:30.718Z,19.02
2018-09-28T02:51:59.104Z,17.87
2018-09-28T02:54:27.598Z,19.05
2018-09-28T02:56:57.129Z,19.80
2018-09-28T02:59:25.560Z,18.00
2018-09-28T03:01:53.976Z,18.15
2018-09-28T03:04:22.432Z,20.25
2018-09-28T03:06:50.758Z,20.37
2018-09-28T03:09:19.319Z,19.60
2018-09-28T03:11:47.654Z,17.62
2018-09-28T03:14:15.965Z,20.15
2018-09-28T03:16:44.297Z,17.27
2018-09-28T03:19:12.643Z,17.85
2018-09-28T03:21:40.971Z,20.20
2018-09-28T03:24:09.451Z,18.65
2018-09-28T03:26:37.813Z,19.27
2018-09-28T03:29:06.155Z,20.70
2018-09-28T03:31:34.482Z,18.82
2018-09-28T03:34:02.930Z,16.42
2018-09-28T03:36:33.845Z,16.50
2018-09-28T03:39:02.485Z,20.20
2018-09-28T03:41:30.916Z,20.95
2018-09-28T03:43:59.415Z,21.40
2018-09-28T03:46:27.829Z,21.75
2018-09-28T03:48:56.177Z,20.77
2018-09-28T03:51:24.951Z,21.23
2018-09-28T03:53:53.261Z,19.73
2018-09-28T03:56:21.674Z,18.40
2018-09-28T03:58:49.992Z,21.27
2018-09-28T04:01:18.345Z,17.73
2018-09-28T04:03:46.714Z,20.35
2018-09-28T04:06:15.177Z,21.25
2018-09-28T04:08:43.554Z,22.32
2018-09-28T04:11:11.881Z,22.10
2018-09-28T04:13:40.230Z,20.95
2018-09-28T04:16:08.619Z,23.07
2018-09-28T04:18:37.024Z,23.83
2018-09-28T04:21:05.463Z,22.90
2018-09-28T04:23:33.895Z,21.65
2018-09-28T04:26:02.279Z,22.58
2018-09-28T04:28:30.582Z,23.75
2018-09-28T04:30:58.899Z,21.37
2018-09-28T04:33:27.248Z,21.57
2018-09-28T04:35:55.593Z,24.37
2018-09-28T04:38:23.968Z,22.67
2018-09-28T04:40:52.292Z,24.55
2018-09-28T04:43:20.597Z,26.62
2018-09-28T04:45:49.107Z,25.95
2018-09-28T04:48:17.498Z,25.97
2018-09-28T04:50:45.918Z,25.20
2018-09-28T04:53:14.344Z,25.05
2018-09-28T04:55:42.757Z,27.07
2018-09-28T04:58:12.630Z,26.00
2018-09-28T05:00:41.129Z,28.42
2018-09-28T05:03:09.560Z,25.10
2018-09-28T05:05:42.222Z,26.27
2018-09-28T05:08:10.822Z,26.12
2018-09-28T05:10:39.223Z,26.60
2018-09-28T05:13:07.634Z,23.57
2018-09-28T05:15:36.071Z,25.48
2018-09-28T05:18:04.467Z,26.33
2018-09-28T05:20:33.014Z,26.52
2018-09-28T05:23:01.361Z,26.10
2018-09-28T05:25:29.733Z,24.63
2018-09-28T05:27:58.058Z,27.50
2018-09-28T05:30:26.389Z,25.60
2018-09-28T05:32:54.867Z,22.75
2018-09-28T05:35:23.109Z,26.17
2018-09-28T05:37:51.735Z,25.15
2018-09-28T05:40:20.159Z,26.23
2018-09-28T05:42:48.923Z,25.30
2018-09-28T05:45:17.383Z,22.60
2018-09-28T05:47:45.739Z,24.75
2018-09-28T05:50:14.155Z,23.87
2018-09-28T05:52:42.468Z,22.87
2018-09-28T05:55:10.852Z,22.37
2018-09-28T05:57:39.188Z,22.15
2018-09-28T06:00:13.049Z,20.82
2018-09-28T06:02:46.847Z,22.77
2018-09-28T06:05:20.637Z,18.75
2018-09-28T06:07:49.097Z,17.52
2018-09-28T06:10:17.884Z,17.65
2018-09-28T06:12:46.238Z,15.25
2018-09-28T06:15:14.606Z,14.87
2018-09-28T06:17:44.017Z,13.10
2018-09-28T06:20:12.452Z,12.65
2018-09-28T06:22:40.768Z,13.48
2018-09-28T06:25:09.173Z,12.20
2018-09-28T06:27:37.483Z,10.88
2018-09-28T06:30:05.850Z,10.05
2018-09-28T06:32:34.743Z,10.98
2018-09-28T06:35:03.206Z,8.10
2018-09-28T06:37:31.595Z,8.28
2018-09-28T06:40:00.048Z,8.93
2018-09-28T06:42:28.630Z,7.72
2018-09-28T06:44:57.041Z,5.12
2018-09-28T06:47:25.395Z,5.60
2018-09-28T06:49:53.782Z,3.95
2018-09-28T06:52:22.101Z,4.12
2018-09-28T06:54:50.428Z,3.08
2018-09-28T06:57:19.815Z,3.10
2018-09-28T06:59:48.224Z,3.00
2018-09-28T07:02:16.712Z,2.17
2018-09-28T07:04:45.260Z,2.17
2018-09-28T07:07:13.672Z,3.52
2018-09-28T07:09:42.061Z,2.95
2018-09-28T07:12:10.391Z,3.25
2018-09-28T07:14:38.722Z,2.42
2018-09-28T07:17:07.172Z,2.70
2018-09-28T07:19:42.421Z,1.87
2018-09-28T07:22:10.745Z,2.40
2018-09-28T07:24:39.197Z,2.35
2018-09-28T07:27:07.655Z,3.00
2018-09-28T07:29:36.016Z,2.22
2018-09-28T07:32:04.381Z,3.27
2018-09-28T07:34:32.688Z,1.87
2018-09-28T07:37:01.173Z,2.50
2018-09-28T07:39:29.375Z,2.52
2018-09-28T07:41:57.721Z,2.75
2018-09-28T07:44:25.998Z,2.12
2018-09-28T07:46:54.413Z,2.72
2018-09-28T07:49:22.708Z,3.65
2018-09-28T07:51:51.062Z,2.60
2018-09-28T07:54:19.368Z,2.87
2018-09-28T07:56:47.748Z,2.58
2018-09-28T07:59:16.119Z,2.90
2018-09-28T08:01:44.566Z,2.50
2018-09-28T08:04:13.013Z,2.75
2018-09-28T08:06:41.634Z,2.65
2018-09-28T08:09:10.781Z,3.02
2018-09-28T08:11:39.213Z,2.95
2018-09-28T08:14:08.262Z,2.52
2018-09-28T08:16:36.658Z,2.83
2018-09-28T08:19:05.000Z,2.77
2018-09-28T08:21:33.319Z,3.42
2018-09-28T08:24:01.683Z,2.72
2018-09-28T08:26:29.978Z,2.98
2018-09-28T08:28:58.313Z,1.92
2018-09-28T08:31:27.398Z,2.60
2018-09-28T08:33:55.675Z,2.17
2018-09-28T08:36:24.060Z,3.45
2018-09-28T08:38:52.348Z,2.87
2018-09-28T08:41:20.896Z,2.60
2018-09-28T08:43:49.282Z,2.75
2018-09-28T08:46:17.856Z,3.42
2018-09-28T08:48:46.377Z,3.30
2018-09-28T08:51:14.667Z,3.33
2018-09-28T08:53:43.002Z,3.12
2018-09-28T08:56:11.395Z,3.20
2018-09-28T08:58:39.762Z,2.17
2018-09-28T09:01:08.157Z,2.33
2018-09-28T09:03:36.512Z,3.20
2018-09-28T09:06:04.852Z,3.62
2018-09-28T09:08:33.225Z,2.90
2018-09-28T09:11:01.539Z,3.12
2018-09-28T09:13:29.912Z,3.45
2018-09-28T09:15:58.275Z,2.50
2018-09-28T09:18:26.798Z,2.65
2018-09-28T09:20:55.252Z,3.02
2018-09-28T09:23:23.653Z,2.62
2018-09-28T09:25:52.122Z,3.10
2018-09-28T09:28:20.459Z,3.47
2018-09-28T09:30:48.838Z,2.95
2018-09-28T09:33:19.119Z,2.95
2018-09-28T09:35:48.308Z,2.72
2018-09-28T09:38:16.678Z,3.02
2018-09-28T09:40:44.992Z,2.80
2018-09-28T09:43:13.271Z,2.65
2018-09-28T09:45:42.781Z,2.62
2018-09-28T09:48:11.144Z,3.52
2018-09-28T09:50:39.528Z,3.47
2018-09-28T09:53:07.813Z,3.30
2018-09-28T09:55:36.183Z,3.12
2018-09-28T09:58:04.625Z,3.50
2018-09-28T10:00:38.426Z,3.60
2018-09-28T10:03:12.132Z,2.87
2018-09-28T10:05:40.464Z,3.45
2018-09-28T10:08:08.789Z,3.17
2018-09-28T10:10:37.169Z,3.05
2018-09-28T10:13:05.553Z,2.45
2018-09-28T10:15:33.980Z,2.60
2018-09-28T10:18:02.461Z,2.65
2018-09-28T10:20:30.968Z,3.02
2018-09-28T10:22:59.416Z,2.30
2018-09-28T10:25:27.824Z,2.87
2018-09-28T10:27:56.765Z,3.22
2018-09-28T10:30:25.095Z,2.45
2018-09-28T10:32:53.432Z,1.80
2018-09-28T10:35:21.847Z,1.90
2018-09-28T10:37:50.217Z,2.15
2018-09-28T10:40:18.671Z,2.37
2018-09-28T10:42:47.450Z,2.27
2018-09-28T10:45:15.973Z,2.55
2018-09-28T10:47:44.314Z,2.40
2018-09-28T10:50:12.768Z,2.52
2018-09-28T10:52:41.440Z,2.33
2018-09-28T10:55:09.927Z,3.08
2018-09-28T10:57:38.321Z,2.02
2018-09-28T11:00:06.731Z,2.05
2018-09-28T11:02:35.118Z,1.82
2018-09-28T11:05:04.113Z,2.33
2018-09-28T11:07:32.892Z,2.45
2018-09-28T11:10:01.303Z,2.30
2018-09-28T11:12:29.657Z,2.20
2018-09-28T11:14:58.021Z,2.65
2018-09-28T11:17:26.372Z,2.60
2018-09-28T11:19:54.708Z,2.00
2018-09-28T11:22:23.017Z,2.20
2018-09-28T11:24:51.376Z,2.37
2018-09-28T11:27:19.924Z,2.52
2018-09-28T11:29:48.283Z,1.90
2018-09-28T11:32:16.767Z,2.65
2018-09-28T11:34:45.255Z,2.33
2018-09-28T11:37:14.756Z,2.83
2018-09-28T11:39:43.342Z,2.75
2018-09-28T11:42:11.645Z,2.58
2018-09-28T11:44:40.008Z,2.27
2018-09-28T11:47:08.327Z,2.30
2018-09-28T11:49:36.681Z,2.67
2018-09-28T11:52:05.022Z,2.77
2018-09-28T11:54:33.354Z,2.30
2018-09-28T11:57:01.760Z,2.60
2018-09-28T11:59:30.075Z,2.17
2018-09-28T12:01:58.455Z,2.00
2018-09-28T12:04:26.846Z,2.42
2018-09-28T12:06:55.359Z,2.47
2018-09-28T12:09:23.766Z,2.33
2018-09-28T12:11:52.182Z,1.77
2018-09-28T12:14:20.651Z,2.30
2018-09-28T12:16:49.229Z,1.70
2018-09-28T12:19:17.531Z,2.17
2018-09-28T12:21:45.879Z,1.32
2018-09-28T12:24:14.258Z,2.30
2018-09-28T12:26:42.569Z,1.95
2018-09-28T12:29:10.979Z,1.87
2018-09-28T12:31:40.178Z,2.55
2018-09-28T12:34:08.482Z,1.87
2018-09-28T12:36:36.896Z,1.62
2018-09-28T12:39:07.476Z,2.40
2018-09-28T12:41:35.764Z,1.87
2018-09-28T12:44:04.094Z,2.40
2018-09-28T12:46:32.502Z,2.27
2018-09-28T12:49:01.100Z,2.05
2018-09-28T12:51:32.640Z,2.15
2018-09-28T12:54:01.298Z,2.52
2018-09-28T12:56:29.906Z,1.55
2018-09-28T12:58:58.369Z,2.52
2018-09-28T13:01:26.793Z,2.10
2018-09-28T13:03:55.498Z,2.60
2018-09-28T13:06:23.855Z,1.90
2018-09-28T13:08:52.204Z,2.22
2018-09-28T13:11:20.597Z,1.95
2018-09-28T13:13:48.974Z,1.92
2018-09-28T13:16:17.317Z,2.52
2018-09-28T13:18:45.721Z,1.82
2018-09-28T13:21:14.152Z,2.00
2018-09-28T13:23:42.479Z,1.27
2018-09-28T13:26:10.901Z,2.20
2018-09-28T13:28:39.320Z,2.02
2018-09-28T13:31:08.077Z,2.65
2018-09-28T13:33:36.607Z,2.20
2018-09-28T13:36:05.249Z,1.75
2018-09-28T13:38:33.723Z,1.82
2018-09-28T13:41:01.960Z,2.22
2018-09-28T13:43:30.341Z,1.90
2018-09-28T13:45:58.719Z,2.65
2018-09-28T13:48:27.215Z,1.80
2018-09-28T13:50:55.517Z,2.10
2018-09-28T13:53:23.877Z,1.65
2018-09-28T13:55:52.168Z,2.12
2018-09-28T13:58:20.552Z,1.25
2018-09-28T14:00:48.885Z,1.75
2018-09-28T14:03:17.324Z,1.62
2018-09-28T14:05:45.810Z,1.35
2018-09-28T14:08:14.147Z,1.35
2018-09-28T14:10:43.339Z,1.60
2018-09-28T14:13:11.701Z,1.57
2018-09-28T14:15:40.115Z,1.20
2018-09-28T14:18:09.490Z,1.42
2018-09-28T14:20:37.811Z,1.87
2018-09-28T14:23:06.180Z,1.27
2018-09-28T14:25:34.545Z,1.20
2018-09-28T14:28:03.556Z,1.40
2018-09-28T14:30:31.961Z,0.98
2018-09-28T14:33:00.290Z,1.25
2018-09-28T14:35:28.786Z,1.20
2018-09-28T14:37:57.172Z,1.10
2018-09-28T14:40:25.572Z,0.80
2018-09-28T14:42:53.818Z,1.77
2018-09-28T14:45:23.205Z,1.22
2018-09-28T14:47:51.687Z,1.25
2018-09-28T14:50:20.240Z,1.07
2018-09-28T14:52:48.737Z,1.22
2018-09-28T14:55:17.415Z,1.57
2018-09-28T14:57:45.791Z,1.60
2018-09-28T15:00:14.173Z,1.15
2018-09-28T15:02:42.551Z,0.90
2018-09-28T15:05:10.864Z,1.20
2018-09-28T15:07:39.211Z,1.40
2018-09-28T15:10:07.664Z,1.25
2018-09-28T15:12:35.989Z,1.90
2018-09-28T15:15:04.407Z,1.55
2018-09-28T15:17:32.872Z,1.62
2018-09-28T15:20:03.099Z,1.77
2018-09-28T15:22:31.564Z,1.80
2018-09-28T15:24:59.877Z,1.62
2018-09-28T15:27:28.292Z,1.30
2018-09-28T15:29:56.689Z,1.40
2018-09-28T15:32:25.136Z,1.52
2018-09-28T15:34:53.597Z,1.67
2018-09-28T15:37:22.048Z,1.80
2018-09-28T15:39:50.463Z,1.07
2018-09-28T15:42:18.955Z,1.30
2018-09-28T15:44:47.544Z,1.90
2018-09-28T15:47:16.080Z,1.37
2018-09-28T15:49:44.515Z,1.10
2018-09-28T15:52:12.841Z,1.50
2018-09-28T15:54:41.163Z,1.57
2018-09-28T15:57:09.540Z,1.57
2018-09-28T15:59:37.858Z,1.90
2018-09-28T16:02:06.519Z,1.50
2018-09-28T16:04:34.880Z,1.42
2018-09-28T16:07:03.260Z,1.77
2018-09-28T16:09:31.768Z,1.95
2018-09-28T16:12:00.205Z,2.02
2018-09-28T16:14:28.965Z,1.70
2018-09-28T16:16:57.369Z,1.62
2018-09-28T16:19:25.828Z,2.85
2018-09-28T16:21:54.230Z,1.37
2018-09-28T16:24:22.581Z,1.80
2018-09-28T16:26:51.813Z,2.10
2018-09-28T16:29:20.132Z,1.70
2018-09-28T16:31:48.505Z,1.90
2018-09-28T16:34:16.827Z,1.87
2018-09-28T16:36:45.171Z,1.90
2018-09-28T16:39:13.485Z,1.75
2018-09-28T16:41:42.196Z,1.90
2018-09-28T16:44:10.557Z,1.57
2018-09-28T16:46:38.939Z,1.95
2018-09-28T16:49:07.424Z,1.80
2018-09-28T16:51:36.007Z,1.30
2018-09-28T16:54:04.464Z,1.57
2018-09-28T16:56:32.858Z,2.20
2018-09-28T16:59:01.386Z,2.65
2018-09-28T17:01:29.723Z,1.65
2018-09-28T17:03:58.069Z,1.70
2018-09-28T17:06:26.393Z,1.27
2018-09-28T17:08:54.739Z,2.05
2018-09-28T17:11:23.051Z,1.75
2018-09-28T17:13:51.369Z,2.00
2018-09-28T17:16:20.873Z,2.58
2018-09-28T17:18:49.284Z,2.00
2018-09-28T17:21:17.928Z,1.95
2018-09-28T17:23:47.036Z,1.90
2018-09-28T17:26:15.532Z,2.00
2018-09-28T17:28:44.085Z,1.92
2018-09-28T17:31:13.347Z,1.75
2018-09-28T17:33:41.951Z,1.77
2018-09-28T17:36:10.371Z,1.98
2018-09-28T17:38:38.777Z,2.08
2018-09-28T17:41:07.129Z,1.42
2018-09-28T17:43:35.556Z,2.00
2018-09-28T17:46:03.905Z,2.17
2018-09-28T17:48:32.179Z,2.50
2018-09-28T17:51:00.546Z,2.33
2018-09-28T17:53:28.834Z,1.98
2018-09-28T17:55:57.179Z,2.40
2018-09-28T17:58:25.559Z,2.47
2018-09-28T18:00:54.129Z,2.42
2018-09-28T18:03:22.337Z,2.17
2018-09-28T18:05:50.880Z,2.30
2018-09-28T18:08:19.218Z,2.40
2018-09-28T18:10:47.720Z,2.65
2018-09-28T18:13:16.279Z,2.67
2018-09-28T18:15:44.640Z,2.70
2018-09-28T18:18:12.949Z,2.30
2018-09-28T18:20:41.352Z,2.70
2018-09-28T18:23:10.238Z,2.62
2018-09-28T18:25:38.903Z,2.37
2018-09-28T18:28:07.396Z,2.30
2018-09-28T18:30:35.770Z,2.85
2018-09-28T18:33:04.214Z,2.65
2018-09-28T18:35:32.558Z,3.08
2018-09-28T18:38:01.008Z,2.45
2018-09-28T18:40:29.292Z,2.85
2018-09-28T18:42:57.664Z,2.50
2018-09-28T18:45:26.032Z,2.55
2018-09-28T18:47:54.553Z,2.27
2018-09-28T18:50:23.644Z,1.98
2018-09-28T18:52:52.076Z,2.92
2018-09-28T18:55:21.816Z,3.00
2018-09-28T18:57:50.095Z,2.58
2018-09-28T19:00:19.329Z,2.27
2018-09-28T19:02:47.683Z,2.37
2018-09-28T19:05:16.007Z,2.05
2018-09-28T19:07:44.484Z,2.80
2018-09-28T19:10:12.849Z,2.65
2018-09-28T19:12:41.227Z,2.75
2018-09-28T19:15:09.515Z,2.92
2018-09-28T19:17:37.832Z,3.00
2018-09-28T19:20:06.316Z,2.58
2018-09-28T19:22:34.562Z,3.05
2018-09-28T19:25:03.168Z,2.33
2018-09-28T19:27:32.139Z,2.60
2018-09-28T19:30:00.926Z,1.98
2018-09-28T19:32:29.513Z,2.83
2018-09-28T19:34:57.892Z,2.47
2018-09-28T19:37:27.884Z,3.08
2018-09-28T19:39:56.271Z,2.62
2018-09-28T19:42:24.611Z,2.90
2018-09-28T19:44:53.029Z,2.77
2018-09-28T19:47:21.615Z,2.12
2018-09-28T19:49:49.963Z,2.87
2018-09-28T19:52:19.136Z,2.70
2018-09-28T19:54:47.891Z,2.35
2018-09-28T19:57:16.327Z,2.60
2018-09-28T19:59:44.737Z,2.08
2018-09-28T20:02:13.183Z,2.12
2018-09-28T20:04:41.634Z,2.72
2018-09-28T20:07:10.226Z,3.22
2018-09-28T20:09:38.807Z,2.70
2018-09-28T20:12:08.491Z,2.12
2018-09-28T20:14:37.077Z,2.70
2018-09-28T20:17:07.460Z,3.87
2018-09-28T20:19:35.843Z,3.72
2018-09-28T20:22:04.325Z,2.35
2018-09-28T20:24:32.984Z,2.02
2018-09-28T20:27:01.639Z,2.55
2018-09-28T20:29:29.950Z,2.33
2018-09-28T20:31:58.439Z,2.40
2018-09-28T20:34:26.843Z,2.25
2018-09-28T20:36:55.186Z,2.35
2018-09-28T20:39:23.481Z,2.62
2018-09-28T20:41:51.844Z,2.92
2018-09-28T20:44:20.290Z,2.17
2018-09-28T20:46:48.762Z,2.87
2018-09-28T20:49:23.782Z,2.47
2018-09-28T20:52:31.886Z,1.85
2018-09-28T20:55:00.216Z,2.47
2018-09-28T20:57:28.559Z,2.27
2018-09-28T20:59:56.905Z,2.20
2018-09-28T21:02:25.182Z,2.55
2018-09-28T21:04:53.512Z,2.08
2018-09-28T21:07:21.979Z,2.85
2018-09-28T21:09:50.827Z,2.65
2018-09-28T21:12:19.338Z,3.10
2018-09-28T21:14:48.149Z,2.90
2018-09-28T21:17:16.947Z,2.20
2018-09-28T21:19:45.947Z,2.75
2018-09-28T21:22:14.255Z,2.65
2018-09-28T21:24:42.713Z,3.67
2018-09-28T21:27:10.964Z,2.85
2018-09-28T21:29:40.268Z,2.98
2018-09-28T21:32:08.535Z,3.08
2018-09-28T21:34:36.815Z,3.47
2018-09-28T21:37:05.092Z,3.08
2018-09-28T21:39:33.432Z,2.65
2018-09-28T21:42:02.619Z,2.70
2018-09-28T21:44:30.954Z,3.22
2018-09-28T21:46:59.268Z,2.62
2018-09-28T21:49:27.750Z,3.12
2018-09-28T21:51:56.286Z,2.92
2018-09-28T21:54:24.651Z,3.50
2018-09-28T21:56:53.073Z,3.52
2018-09-28T21:59:21.474Z,3.15
2018-09-28T22:01:49.699Z,2.85
2018-09-28T22:04:19.498Z,2.50
2018-09-28T22:06:47.791Z,2.37
2018-09-28T22:09:16.232Z,2.55
2018-09-28T22:11:44.670Z,2.70
2018-09-28T22:14:13.820Z,3.05
2018-09-28T22:16:42.207Z,3.20
2018-09-28T22:19:10.528Z,3.17
2018-09-28T22:21:40.028Z,2.60
2018-09-28T22:24:08.383Z,3.05
2018-09-28T22:26:36.800Z,3.62
2018-09-28T22:29:05.063Z,3.12
2018-09-28T22:31:33.471Z,2.50
2018-09-28T22:34:02.403Z,3.20
2018-09-28T22:36:30.815Z,2.83
2018-09-28T22:38:59.970Z,2.47
2018-09-28T22:41:28.298Z,2.65
2018-09-28T22:43:56.638Z,2.77
2018-09-28T22:46:27.853Z,3.02
2018-09-28T22:48:56.192Z,2.60
2018-09-28T22:51:24.581Z,2.87
2018-09-28T22:53:52.951Z,2.60
2018-09-28T22:56:21.291Z,2.55
2018-09-28T22:58:49.605Z,5.97
2018-09-28T23:01:17.935Z,3.30
2018-09-28T23:03:46.263Z,3.27
2018-09-28T23:06:14.592Z,4.15
2018-09-28T23:08:42.903Z,3.25
2018-09-28T23:11:11.308Z,3.12
2018-09-28T23:13:39.623Z,3.00
2018-09-28T23:16:08.104Z,3.67
2018-09-28T23:18:36.504Z,3.35
2018-09-28T23:21:04.801Z,2.60
2018-09-28T23:23:33.168Z,3.58
2018-09-28T23:26:01.483Z,3.55
2018-09-28T23:28:29.855Z,3.37
2018-09-28T23:30:58.115Z,2.98
2018-09-28T23:33:26.393Z,3.25
2018-09-28T23:35:55.510Z,3.27
2018-09-28T23:38:23.791Z,2.47
2018-09-28T23:40:52.144Z,3.20
2018-09-28T23:43:21.209Z,3.37
2018-09-28T23:45:49.592Z,3.22
2018-09-28T23:48:18.013Z,2.58
2018-09-28T23:50:46.675Z,2.85
2018-09-28T23:53:15.201Z,2.77
2018-09-28T23:55:43.911Z,3.30
2018-09-28T23:58:13.473Z,3.00
